createdAt,value
2023-01-10T00:00:02.381Z,8.48
2023-01-10T00:01:02.334Z,8.48
2023-01-10T00:02:02.316Z,8.48
2023-01-10T00:03:02.408Z,8.45
2023-01-10T00:04:02.305Z,8.39
2023-01-10T00:05:02.278Z,8.48
2023-01-10T00:06:02.267Z,8.50
2023-01-10T00:07:02.257Z,8.50
2023-01-10T00:08:02.251Z,8.36
2023-01-10T00:09:02.244Z,8.44
2023-01-10T00:10:02.224Z,8.35
2023-01-10T00:11:02.223Z,8.36
2023-01-10T00:12:02.203Z,8.36
2023-01-10T00:13:02.201Z,8.37
2023-01-10T00:14:02.193Z,8.40
2023-01-10T00:15:02.186Z,8.44
2023-01-10T00:16:02.182Z,8.36
2023-01-10T00:17:02.165Z,8.40
2023-01-10T00:18:02.139Z,8.39
2023-01-10T00:19:02.140Z,8.33
2023-01-10T00:20:02.128Z,8.28
2023-01-10T00:21:02.109Z,8.30
2023-01-10T00:22:02.097Z,8.39
2023-01-10T00:23:02.079Z,8.32
2023-01-10T00:24:02.082Z,8.30
2023-01-10T00:25:02.058Z,8.32
2023-01-10T00:26:02.054Z,8.35
2023-01-10T00:27:02.047Z,8.32
2023-01-10T00:28:02.028Z,8.30
2023-01-10T00:29:02.028Z,8.30
2023-01-10T00:30:02.018Z,8.32
2023-01-10T00:31:02.087Z,8.30
2023-01-10T00:32:01.995Z,8.29
2023-01-10T00:33:01.972Z,8.29
2023-01-10T00:34:01.973Z,8.32
2023-01-10T00:35:01.949Z,8.30
2023-01-10T00:36:01.938Z,8.30
2023-01-10T00:37:01.937Z,8.30
2023-01-10T00:38:01.917Z,8.30
2023-01-10T00:39:01.926Z,8.18
2023-01-10T00:40:01.895Z,8.25
2023-01-10T00:41:01.903Z,8.18
2023-01-10T00:42:01.873Z,8.20
2023-01-10T00:43:01.873Z,8.28
2023-01-10T00:44:01.872Z,8.21
2023-01-10T00:45:01.840Z,8.20
2023-01-10T00:46:01.868Z,8.28
2023-01-10T00:47:01.902Z,8.22
2023-01-10T00:48:01.818Z,8.30
2023-01-10T00:49:01.809Z,8.28
2023-01-10T00:50:01.810Z,8.22
2023-01-10T00:51:01.772Z,8.20
2023-01-10T00:52:01.768Z,8.21
2023-01-10T00:53:01.752Z,8.20
2023-01-10T00:54:01.757Z,8.17
2023-01-10T00:55:01.731Z,8.21
2023-01-10T00:56:01.725Z,8.17
2023-01-10T00:57:01.713Z,8.22
2023-01-10T00:58:01.713Z,8.20
2023-01-10T00:59:01.699Z,8.25
2023-01-10T01:00:01.681Z,8.26
2023-01-10T01:01:01.758Z,8.25
2023-01-10T01:02:01.686Z,8.22
2023-01-10T01:03:01.718Z,8.22
2023-01-10T01:04:01.660Z,8.18
2023-01-10T01:05:01.660Z,8.21
2023-01-10T01:06:01.626Z,8.22
2023-01-10T01:07:01.610Z,8.18
2023-01-10T01:08:01.589Z,8.17
2023-01-10T01:09:01.591Z,8.25
2023-01-10T01:10:01.568Z,8.18
2023-01-10T01:11:01.556Z,8.17
2023-01-10T01:12:01.550Z,8.20
2023-01-10T01:13:01.534Z,8.18
2023-01-10T01:14:01.533Z,8.17
2023-01-10T01:15:01.524Z,8.14
2023-01-10T01:16:01.530Z,8.10
2023-01-10T01:17:01.488Z,8.18
2023-01-10T01:18:01.498Z,8.18
2023-01-10T01:19:01.508Z,8.11
2023-01-10T01:20:01.483Z,8.17
2023-01-10T01:21:01.445Z,8.10
2023-01-10T01:22:01.446Z,8.11
2023-01-10T01:23:01.434Z,8.20
2023-01-10T01:24:01.529Z,8.12
2023-01-10T01:25:01.407Z,8.14
2023-01-10T01:26:01.444Z,8.17
2023-01-10T01:27:01.384Z,8.14
2023-01-10T01:28:01.374Z,8.15
2023-01-10T01:29:01.371Z,8.11
2023-01-10T01:30:01.368Z,8.04
2023-01-10T01:31:01.347Z,8.12
2023-01-10T01:32:01.331Z,8.11
2023-01-10T01:33:01.313Z,8.07
2023-01-10T01:34:01.323Z,8.10
2023-01-10T01:35:01.305Z,8.07
2023-01-10T01:36:01.283Z,8.00
2023-01-10T01:37:01.273Z,7.96
2023-01-10T01:38:01.262Z,7.92
2023-01-10T01:39:01.261Z,7.90
2023-01-10T01:40:01.243Z,7.85
2023-01-10T01:41:01.236Z,7.92
2023-01-10T01:42:01.218Z,7.82
2023-01-10T01:43:01.205Z,7.92
2023-01-10T01:44:01.223Z,7.92
2023-01-10T01:45:01.185Z,7.79
2023-01-10T01:46:01.242Z,7.87
2023-01-10T01:47:01.161Z,7.89
2023-01-10T01:48:01.155Z,7.85
2023-01-10T01:49:01.139Z,7.87
2023-01-10T01:50:01.145Z,7.84
2023-01-10T01:51:01.142Z,7.85
2023-01-10T01:52:01.112Z,7.85
2023-01-10T01:53:01.095Z,7.84
2023-01-10T01:54:01.088Z,7.87
2023-01-10T01:55:01.092Z,7.78
2023-01-10T01:56:01.063Z,7.85
2023-01-10T01:57:01.055Z,7.84
2023-01-10T01:58:01.043Z,7.84
2023-01-10T01:59:01.031Z,7.82
2023-01-10T02:00:01.030Z,7.90
2023-01-10T02:01:01.043Z,7.89
2023-01-10T02:02:01.144Z,7.79
2023-01-10T02:03:02.944Z,7.74
2023-01-10T02:04:01.020Z,7.81
2023-01-10T02:05:00.982Z,7.75
2023-01-10T02:06:00.955Z,7.78
2023-01-10T02:07:00.963Z,7.75
2023-01-10T02:08:00.939Z,7.78
2023-01-10T02:09:00.922Z,7.81
2023-01-10T02:10:00.926Z,7.72
2023-01-10T02:11:00.921Z,7.74
2023-01-10T02:12:00.895Z,7.74
2023-01-10T02:13:00.882Z,7.74
2023-01-10T02:14:00.874Z,7.74
2023-01-10T02:15:00.871Z,7.69
2023-01-10T02:16:00.908Z,7.78
2023-01-10T02:17:00.838Z,7.74
2023-01-10T02:18:00.828Z,7.67
2023-01-10T02:19:00.826Z,7.69
2023-01-10T02:20:00.825Z,7.71
2023-01-10T02:21:00.795Z,7.67
2023-01-10T02:22:00.789Z,7.71
2023-01-10T02:23:00.801Z,7.67
2023-01-10T02:24:00.767Z,7.69
2023-01-10T02:25:00.776Z,7.74
2023-01-10T02:26:00.745Z,7.74
2023-01-10T02:27:00.747Z,7.72
2023-01-10T02:28:00.727Z,7.69
2023-01-10T02:29:00.711Z,7.81
2023-01-10T02:30:00.716Z,7.77
2023-01-10T02:31:00.731Z,7.75
2023-01-10T02:32:00.684Z,7.74
2023-01-10T02:33:05.535Z,7.74
2023-01-10T02:34:01.652Z,7.78
2023-01-10T02:35:00.656Z,7.84
2023-01-10T02:36:00.633Z,7.75
2023-01-10T02:37:00.621Z,7.75
2023-01-10T02:38:00.626Z,7.74
2023-01-10T02:39:00.622Z,7.77
2023-01-10T02:40:00.611Z,7.78
2023-01-10T02:41:00.582Z,7.85
2023-01-10T02:42:00.572Z,7.77
2023-01-10T02:43:00.559Z,7.90
2023-01-10T02:44:00.549Z,7.79
2023-01-10T02:45:00.544Z,7.78
2023-01-10T02:46:00.526Z,7.93
2023-01-10T02:47:00.513Z,7.93
2023-01-10T02:48:00.512Z,7.90
2023-01-10T02:49:00.504Z,7.85
2023-01-10T02:50:00.504Z,7.89
2023-01-10T02:51:00.472Z,7.92
2023-01-10T02:52:00.459Z,7.89
2023-01-10T02:53:00.455Z,7.81
2023-01-10T02:54:00.445Z,7.82
2023-01-10T02:55:00.469Z,7.87
2023-01-10T02:56:00.426Z,7.93
2023-01-10T02:57:00.406Z,7.85
2023-01-10T02:58:00.396Z,7.82
2023-01-10T02:59:00.382Z,7.87
2023-01-10T03:00:00.389Z,7.90
2023-01-10T03:01:00.373Z,7.90
2023-01-10T03:02:00.365Z,7.85
2023-01-10T03:03:00.380Z,7.81
2023-01-10T03:04:00.333Z,7.85
2023-01-10T03:05:00.494Z,7.85
2023-01-10T03:06:00.310Z,7.85
2023-01-10T03:07:00.299Z,7.78
2023-01-10T03:08:00.290Z,7.87
2023-01-10T03:09:00.276Z,7.89
2023-01-10T03:10:00.282Z,7.87
2023-01-10T03:11:00.299Z,7.85
2023-01-10T03:12:00.245Z,7.87
2023-01-10T03:13:00.237Z,7.82
2023-01-10T03:14:00.228Z,7.82
2023-01-10T03:15:00.222Z,7.78
2023-01-10T03:16:00.274Z,7.82
2023-01-10T03:17:07.828Z,7.93
2023-01-10T03:18:00.187Z,7.85
2023-01-10T03:19:00.167Z,7.78
2023-01-10T03:20:00.176Z,7.87
2023-01-10T03:21:00.192Z,7.85
2023-01-10T03:22:00.135Z,7.81
2023-01-10T03:23:00.132Z,7.87
2023-01-10T03:24:00.145Z,7.82
2023-01-10T03:25:00.174Z,7.89
2023-01-10T03:26:00.127Z,7.82
2023-01-10T03:27:00.100Z,7.79
2023-01-10T03:28:00.092Z,7.82
2023-01-10T03:29:00.071Z,7.87
2023-01-10T03:30:00.076Z,7.82
2023-01-10T03:31:00.168Z,7.89
2023-01-10T03:32:00.035Z,7.92
2023-01-10T03:33:00.104Z,7.93
2023-01-10T03:34:00.022Z,7.90
2023-01-10T03:35:00.023Z,7.94
2023-01-10T03:35:59.989Z,7.84
2023-01-10T03:36:59.974Z,7.87
2023-01-10T03:37:59.964Z,7.90
2023-01-10T03:38:59.961Z,7.85
2023-01-10T03:39:59.962Z,7.84
2023-01-10T03:40:59.934Z,7.79
2023-01-10T03:41:59.925Z,7.75
2023-01-10T03:42:59.931Z,7.87
2023-01-10T03:43:59.914Z,7.85
2023-01-10T03:44:59.913Z,7.84
2023-01-10T03:45:59.884Z,7.72
2023-01-10T03:46:59.867Z,7.77
2023-01-10T03:47:59.875Z,7.75
2023-01-10T03:48:59.859Z,7.75
2023-01-10T03:49:59.865Z,7.78
2023-01-10T03:50:59.826Z,7.74
2023-01-10T03:51:59.814Z,7.75
2023-01-10T03:52:59.808Z,7.78
2023-01-10T03:53:59.796Z,7.81
2023-01-10T03:54:59.794Z,7.87
2023-01-10T03:55:59.787Z,7.77
2023-01-10T03:57:01.895Z,7.77
2023-01-10T03:57:59.750Z,7.75
2023-01-10T03:58:59.775Z,7.78
2023-01-10T03:59:59.741Z,7.72
2023-01-10T04:00:59.892Z,7.77
2023-01-10T04:01:59.909Z,7.75
2023-01-10T04:02:59.715Z,7.74
2023-01-10T04:03:59.725Z,7.71
2023-01-10T04:04:59.684Z,7.78
2023-01-10T04:05:59.677Z,7.69
2023-01-10T04:06:59.653Z,7.77
2023-01-10T04:07:59.658Z,7.74
2023-01-10T04:08:59.641Z,7.75
2023-01-10T04:09:59.642Z,7.75
2023-01-10T04:10:59.611Z,7.72
2023-01-10T04:11:59.606Z,7.72
2023-01-10T04:12:59.589Z,7.74
2023-01-10T04:13:59.576Z,7.72
2023-01-10T04:14:59.623Z,7.69
2023-01-10T04:15:59.602Z,7.72
2023-01-10T04:16:59.550Z,7.77
2023-01-10T04:17:59.543Z,7.71
2023-01-10T04:18:59.527Z,7.77
2023-01-10T04:19:59.539Z,7.71
2023-01-10T04:20:59.501Z,7.69
2023-01-10T04:21:59.494Z,7.71
2023-01-10T04:22:59.489Z,7.71
2023-01-10T04:23:59.471Z,7.75
2023-01-10T04:24:59.474Z,7.71
2023-01-10T04:25:59.447Z,7.72
2023-01-10T04:26:59.437Z,7.67
2023-01-10T04:27:59.431Z,7.74
2023-01-10T04:28:59.419Z,7.69
2023-01-10T04:29:59.416Z,7.67
2023-01-10T04:30:59.409Z,7.60
2023-01-10T04:31:59.385Z,7.56
2023-01-10T04:32:59.397Z,7.56
2023-01-10T04:33:59.366Z,7.55
2023-01-10T04:34:59.365Z,7.60
2023-01-10T04:35:59.343Z,7.56
2023-01-10T04:36:59.344Z,7.55
2023-01-10T04:37:59.322Z,7.58
2023-01-10T04:38:59.313Z,7.56
2023-01-10T04:39:59.314Z,7.58
2023-01-10T04:40:59.295Z,7.55
2023-01-10T04:41:59.278Z,7.58
2023-01-10T04:42:59.271Z,7.69
2023-01-10T04:43:59.265Z,7.55
2023-01-10T04:44:59.261Z,7.72
2023-01-10T04:45:59.310Z,7.58
2023-01-10T04:46:59.240Z,7.77
2023-01-10T04:47:59.211Z,7.72
2023-01-10T04:48:59.216Z,7.72
2023-01-10T04:49:59.213Z,7.63
2023-01-10T04:50:59.182Z,7.77
2023-01-10T04:51:59.169Z,7.75
2023-01-10T04:52:59.160Z,7.69
2023-01-10T04:53:59.147Z,7.71
2023-01-10T04:54:59.146Z,7.78
2023-01-10T04:55:59.126Z,7.77
2023-01-10T04:56:59.115Z,7.71
2023-01-10T04:57:59.103Z,7.75
2023-01-10T04:58:59.094Z,7.77
2023-01-10T04:59:59.089Z,7.71
2023-01-10T05:00:59.105Z,7.75
2023-01-10T05:01:59.296Z,7.74
2023-01-10T05:02:59.190Z,7.72
2023-01-10T05:03:59.053Z,7.78
2023-01-10T05:04:59.047Z,7.69
2023-01-10T05:05:59.034Z,7.75
2023-01-10T05:06:59.015Z,7.75
2023-01-10T05:07:58.995Z,7.84
2023-01-10T05:08:58.992Z,7.79
2023-01-10T05:09:58.994Z,7.75
2023-01-10T05:10:58.963Z,7.79
2023-01-10T05:11:58.952Z,7.78
2023-01-10T05:12:58.947Z,7.72
2023-01-10T05:13:58.972Z,7.82
2023-01-10T05:14:58.933Z,7.75
2023-01-10T05:15:58.918Z,7.75
2023-01-10T05:16:58.899Z,7.72
2023-01-10T05:17:58.896Z,7.82
2023-01-10T05:18:58.911Z,7.78
2023-01-10T05:19:58.885Z,7.77
2023-01-10T05:20:58.857Z,7.72
2023-01-10T05:21:58.845Z,7.75
2023-01-10T05:22:58.835Z,7.87
2023-01-10T05:23:58.823Z,7.90
2023-01-10T05:24:58.814Z,7.75
2023-01-10T05:25:58.811Z,7.78
2023-01-10T05:26:58.790Z,7.79
2023-01-10T05:27:58.778Z,7.90
2023-01-10T05:28:58.770Z,7.84
2023-01-10T05:29:58.756Z,7.79
2023-01-10T05:30:58.763Z,7.89
2023-01-10T05:31:58.790Z,7.85
2023-01-10T05:32:58.727Z,7.85
2023-01-10T05:33:58.712Z,7.92
2023-01-10T05:34:58.722Z,7.89
2023-01-10T05:35:58.702Z,7.87
2023-01-10T05:36:58.679Z,7.89
2023-01-10T05:37:58.668Z,7.90
2023-01-10T05:38:58.661Z,7.90
2023-01-10T05:39:58.652Z,7.90
2023-01-10T05:40:59.127Z,7.92
2023-01-10T05:41:58.626Z,7.92
2023-01-10T05:42:58.624Z,7.93
2023-01-10T05:43:58.602Z,8.00
2023-01-10T05:44:58.591Z,7.92
2023-01-10T05:45:58.610Z,7.97
2023-01-10T05:46:58.570Z,7.94
2023-01-10T05:47:58.558Z,7.96
2023-01-10T05:48:58.549Z,7.94
2023-01-10T05:49:58.564Z,8.02
2023-01-10T05:50:58.557Z,7.93
2023-01-10T05:51:58.517Z,7.94
2023-01-10T05:52:58.504Z,7.97
2023-01-10T05:53:58.492Z,7.89
2023-01-10T05:54:58.482Z,7.92
2023-01-10T05:55:58.485Z,7.87
2023-01-10T05:56:58.464Z,7.89
2023-01-10T05:57:58.447Z,7.92
2023-01-10T05:59:07.809Z,7.90
2023-01-10T05:59:59.428Z,7.94
2023-01-10T06:00:58.535Z,7.96
2023-01-10T06:01:58.441Z,8.04
2023-01-10T06:02:58.525Z,7.97
2023-01-10T06:03:58.421Z,7.99
2023-01-10T06:04:58.375Z,7.99
2023-01-10T06:05:58.378Z,7.97
2023-01-10T06:06:58.369Z,8.10
2023-01-10T06:07:58.338Z,7.99
2023-01-10T06:08:58.333Z,7.97
2023-01-10T06:09:58.316Z,7.97
2023-01-10T06:10:58.318Z,8.07
2023-01-10T06:11:58.296Z,8.00
2023-01-10T06:12:58.284Z,8.08
2023-01-10T06:13:58.281Z,8.04
2023-01-10T06:14:58.311Z,8.02
2023-01-10T06:15:58.285Z,8.04
2023-01-10T06:16:58.245Z,8.07
2023-01-10T06:17:58.229Z,8.11
2023-01-10T06:18:58.248Z,8.10
2023-01-10T06:19:58.213Z,8.08
2023-01-10T06:20:58.217Z,8.10
2023-01-10T06:21:58.182Z,8.07
2023-01-10T06:22:58.303Z,8.04
2023-01-10T06:23:58.174Z,8.02
2023-01-10T06:24:58.156Z,8.07
2023-01-10T06:25:58.159Z,8.03
2023-01-10T06:26:58.131Z,8.03
2023-01-10T06:27:58.117Z,8.12
2023-01-10T06:28:58.109Z,8.15
2023-01-10T06:29:58.110Z,8.14
2023-01-10T06:30:58.147Z,8.18
2023-01-10T06:31:58.073Z,8.15
2023-01-10T06:32:58.065Z,8.14
2023-01-10T06:33:58.051Z,8.21
2023-01-10T06:34:58.053Z,8.14
2023-01-10T06:35:58.042Z,8.20
2023-01-10T06:36:58.023Z,8.18
2023-01-10T06:37:58.020Z,8.18
2023-01-10T06:38:58.026Z,8.14
2023-01-10T06:39:57.985Z,8.18
2023-01-10T06:40:57.988Z,8.20
2023-01-10T06:41:57.965Z,8.21
2023-01-10T06:42:57.957Z,8.25
2023-01-10T06:43:57.942Z,8.26
2023-01-10T06:44:57.931Z,8.28
2023-01-10T06:45:57.945Z,8.25
2023-01-10T06:46:57.921Z,8.25
2023-01-10T06:47:57.898Z,8.30
2023-01-10T06:48:57.911Z,8.18
2023-01-10T06:49:57.882Z,8.17
2023-01-10T06:50:57.878Z,8.26
2023-01-10T06:51:57.858Z,8.22
2023-01-10T06:52:57.843Z,8.32
2023-01-10T06:53:57.837Z,8.29
2023-01-10T06:54:57.838Z,8.30
2023-01-10T06:55:57.817Z,8.32
2023-01-10T06:56:57.804Z,8.25
2023-01-10T06:57:57.823Z,8.22
2023-01-10T06:58:57.777Z,8.22
2023-01-10T06:59:57.765Z,8.22
2023-01-10T07:00:57.889Z,8.20
2023-01-10T07:01:57.909Z,8.25
2023-01-10T07:02:57.733Z,8.26
2023-01-10T07:03:57.795Z,8.22
2023-01-10T07:04:57.711Z,8.15
2023-01-10T07:05:57.711Z,8.18
2023-01-10T07:06:57.689Z,8.15
2023-01-10T07:07:57.677Z,8.20
2023-01-10T07:08:57.678Z,8.18
2023-01-10T07:09:57.658Z,8.21
2023-01-10T07:10:57.684Z,8.20
2023-01-10T07:11:57.632Z,8.25
2023-01-10T07:12:57.635Z,8.28
2023-01-10T07:13:57.609Z,8.22
2023-01-10T07:14:57.625Z,8.25
2023-01-10T07:15:57.618Z,8.21
2023-01-10T07:16:57.634Z,8.22
2023-01-10T07:17:57.603Z,8.26
2023-01-10T07:18:57.569Z,8.28
2023-01-10T07:19:57.545Z,8.28
2023-01-10T07:20:57.544Z,8.25
2023-01-10T07:21:57.530Z,8.15
2023-01-10T07:22:57.525Z,8.12
2023-01-10T07:23:57.504Z,8.07
2023-01-10T07:24:57.500Z,8.07
2023-01-10T07:25:57.487Z,8.10
2023-01-10T07:26:57.499Z,8.10
2023-01-10T07:27:57.461Z,8.10
2023-01-10T07:28:57.457Z,8.12
2023-01-10T07:29:57.436Z,8.07
2023-01-10T07:30:57.492Z,8.07
2023-01-10T07:31:57.412Z,8.11
2023-01-10T07:32:57.405Z,8.12
2023-01-10T07:33:57.401Z,8.12
2023-01-10T07:34:57.382Z,8.20
2023-01-10T07:35:57.386Z,8.15
2023-01-10T07:36:57.364Z,8.15
2023-01-10T07:37:57.348Z,8.15
2023-01-10T07:38:57.340Z,8.20
2023-01-10T07:39:57.330Z,8.15
2023-01-10T07:40:57.335Z,8.17
2023-01-10T07:41:57.304Z,8.17
2023-01-10T07:42:57.312Z,8.17
2023-01-10T07:43:57.286Z,8.20
2023-01-10T07:44:57.274Z,8.28
2023-01-10T07:45:57.285Z,8.22
2023-01-10T07:46:57.249Z,8.21
2023-01-10T07:47:57.245Z,8.22
2023-01-10T07:48:57.230Z,8.26
2023-01-10T07:49:57.224Z,8.30
2023-01-10T07:50:57.217Z,8.32
2023-01-10T07:51:57.211Z,8.28
2023-01-10T07:52:57.187Z,8.28
2023-01-10T07:53:57.190Z,8.32
2023-01-10T07:54:57.165Z,8.25
2023-01-10T07:55:57.165Z,8.29
2023-01-10T07:56:57.142Z,8.26
2023-01-10T07:57:57.138Z,8.32
2023-01-10T07:58:57.150Z,8.30
2023-01-10T07:59:57.139Z,8.33
2023-01-10T08:00:57.160Z,8.35
2023-01-10T08:01:57.085Z,8.28
2023-01-10T08:02:57.221Z,8.29
2023-01-10T08:03:57.064Z,8.29
2023-01-10T08:04:57.058Z,8.33
2023-01-10T08:05:57.067Z,8.18
2023-01-10T08:06:57.047Z,8.28
2023-01-10T08:07:57.023Z,8.32
2023-01-10T08:08:57.020Z,8.32
2023-01-10T08:09:56.999Z,8.33
2023-01-10T08:10:57.006Z,8.32
2023-01-10T08:11:56.989Z,8.28
2023-01-10T08:13:01.546Z,8.30
2023-01-10T08:13:57.953Z,8.32
2023-01-10T08:14:56.967Z,8.22
2023-01-10T08:15:57.001Z,8.32
2023-01-10T08:16:56.943Z,8.36
2023-01-10T08:17:56.911Z,8.36
2023-01-10T08:18:56.942Z,8.33
2023-01-10T08:19:56.891Z,8.33
2023-01-10T08:20:56.886Z,8.37
2023-01-10T08:21:56.872Z,8.30
2023-01-10T08:22:56.853Z,8.36
2023-01-10T08:23:56.848Z,8.40
2023-01-10T08:24:56.871Z,8.36
2023-01-10T08:25:56.836Z,8.30
2023-01-10T08:26:56.814Z,8.37
2023-01-10T08:27:56.812Z,8.37
2023-01-10T08:28:56.791Z,8.37
2023-01-10T08:29:56.777Z,8.35
2023-01-10T08:30:56.836Z,8.37
2023-01-10T08:31:56.754Z,8.39
2023-01-10T08:32:56.745Z,8.36
2023-01-10T08:33:56.739Z,8.37
2023-01-10T08:34:56.722Z,8.39
2023-01-10T08:35:56.722Z,8.42
2023-01-10T08:36:56.708Z,8.33
2023-01-10T08:37:56.697Z,8.39
2023-01-10T08:38:56.685Z,8.37
2023-01-10T08:39:56.676Z,8.42
2023-01-10T08:40:56.669Z,8.44
2023-01-10T08:41:56.645Z,8.45
2023-01-10T08:42:56.633Z,8.39
2023-01-10T08:43:56.623Z,8.62
2023-01-10T08:44:56.612Z,8.48
2023-01-10T08:45:56.611Z,8.54
2023-01-10T08:46:56.675Z,8.69
2023-01-10T08:47:56.586Z,8.81
2023-01-10T08:48:56.568Z,8.71
2023-01-10T08:49:56.559Z,8.91
2023-01-10T08:50:56.558Z,8.88
2023-01-10T08:51:56.541Z,8.83
2023-01-10T08:52:56.524Z,8.79
2023-01-10T08:53:56.529Z,8.91
2023-01-10T08:54:56.501Z,8.81
2023-01-10T08:55:56.511Z,8.81
2023-01-10T08:56:56.477Z,8.69
2023-01-10T08:57:56.471Z,8.76
2023-01-10T08:58:56.464Z,8.66
2023-01-10T08:59:56.452Z,8.71
2023-01-10T09:00:56.527Z,8.78
2023-01-10T09:01:56.450Z,8.75
2023-01-10T09:02:56.510Z,8.71
2023-01-10T09:03:56.407Z,8.71
2023-01-10T09:04:56.394Z,8.81
2023-01-10T09:05:56.384Z,8.88
2023-01-10T09:06:56.420Z,9.10
2023-01-10T09:07:56.374Z,9.38
2023-01-10T09:08:56.369Z,9.56
2023-01-10T09:09:56.342Z,9.66
2023-01-10T09:10:56.329Z,9.85
2023-01-10T09:11:56.328Z,10.19
2023-01-10T09:12:56.333Z,10.56
2023-01-10T09:13:56.307Z,10.84
2023-01-10T09:14:56.308Z,10.92
2023-01-10T09:15:56.340Z,10.91
2023-01-10T09:16:56.272Z,10.96
2023-01-10T09:17:56.279Z,10.89
2023-01-10T09:18:56.284Z,10.84
2023-01-10T09:19:56.271Z,10.71
2023-01-10T09:20:56.222Z,10.68
2023-01-10T09:21:56.249Z,10.78
2023-01-10T09:22:56.203Z,10.92
2023-01-10T09:23:56.192Z,11.25
2023-01-10T09:24:56.178Z,11.31
2023-01-10T09:25:56.168Z,11.27
2023-01-10T09:26:56.166Z,11.24
2023-01-10T09:27:56.143Z,11.20
2023-01-10T09:28:56.132Z,11.19
2023-01-10T09:29:56.126Z,11.03
2023-01-10T09:30:56.112Z,10.91
2023-01-10T09:31:56.119Z,10.91
2023-01-10T09:32:56.090Z,10.84
2023-01-10T09:33:56.084Z,10.74
2023-01-10T09:34:56.084Z,10.71
2023-01-10T09:35:56.056Z,10.60
2023-01-10T09:36:56.051Z,10.62
2023-01-10T09:37:56.054Z,10.47
2023-01-10T09:39:03.932Z,10.55
2023-01-10T09:39:56.013Z,10.39
2023-01-10T09:40:56.012Z,10.32
2023-01-10T09:41:56.003Z,10.21
2023-01-10T09:42:56.003Z,10.22
2023-01-10T09:43:55.971Z,10.07
2023-01-10T09:44:55.955Z,9.93
2023-01-10T09:45:55.949Z,9.83
2023-01-10T09:46:55.983Z,9.73
2023-01-10T09:47:55.952Z,9.73
2023-01-10T09:48:55.928Z,9.66
2023-01-10T09:49:55.914Z,9.71
2023-01-10T09:50:55.922Z,9.64
2023-01-10T09:51:58.244Z,9.79
2023-01-10T09:52:55.868Z,9.75
2023-01-10T09:54:10.058Z,9.70
2023-01-10T09:54:56.848Z,9.78
2023-01-10T09:55:55.841Z,9.73
2023-01-10T09:56:55.848Z,9.82
2023-01-10T09:57:55.816Z,9.70
2023-01-10T09:58:55.808Z,9.67
2023-01-10T09:59:55.796Z,9.58
2023-01-10T10:00:55.854Z,9.56
2023-01-10T10:01:55.791Z,9.61
2023-01-10T10:02:55.806Z,9.58
2023-01-10T10:03:55.866Z,9.67
2023-01-10T10:04:55.743Z,9.63
2023-01-10T10:06:03.643Z,9.56
2023-01-10T10:06:56.770Z,9.53
2023-01-10T10:07:55.711Z,9.40
2023-01-10T10:08:55.692Z,9.49
2023-01-10T10:09:55.684Z,9.46
2023-01-10T10:10:55.769Z,9.46
2023-01-10T10:11:55.675Z,9.57
2023-01-10T10:12:55.690Z,9.67
2023-01-10T10:13:55.641Z,9.61
2023-01-10T10:14:55.633Z,9.76
2023-01-10T10:15:55.685Z,9.78
2023-01-10T10:16:55.623Z,9.67
2023-01-10T10:17:55.603Z,9.67
2023-01-10T10:18:55.581Z,9.66
2023-01-10T10:19:55.607Z,9.71
2023-01-10T10:20:55.563Z,9.64
2023-01-10T10:21:55.566Z,9.71
2023-01-10T10:22:55.562Z,9.71
2023-01-10T10:23:55.544Z,9.83
2023-01-10T10:24:55.541Z,9.82
2023-01-10T10:25:55.515Z,9.83
2023-01-10T10:26:55.513Z,9.93
2023-01-10T10:27:55.488Z,9.94
2023-01-10T10:28:55.624Z,9.94
2023-01-10T10:29:55.469Z,10.04
2023-01-10T10:30:55.454Z,9.91
2023-01-10T10:31:55.489Z,9.97
2023-01-10T10:32:55.457Z,9.93
2023-01-10T10:33:55.419Z,9.88
2023-01-10T10:34:55.411Z,10.01
2023-01-10T10:35:55.399Z,9.94
2023-01-10T10:36:55.398Z,9.96
2023-01-10T10:37:55.386Z,9.97
2023-01-10T10:38:55.379Z,9.88
2023-01-10T10:39:55.402Z,9.81
2023-01-10T10:40:55.348Z,9.81
2023-01-10T10:41:55.342Z,9.75
2023-01-10T10:42:55.331Z,9.82
2023-01-10T10:43:55.315Z,9.66
2023-01-10T10:44:55.313Z,9.64
2023-01-10T10:45:55.427Z,9.60
2023-01-10T10:46:55.287Z,9.57
2023-01-10T10:47:55.270Z,9.61
2023-01-10T10:48:55.252Z,9.56
2023-01-10T10:49:55.249Z,9.52
2023-01-10T10:50:55.231Z,9.52
2023-01-10T10:51:55.239Z,9.52
2023-01-10T10:52:55.207Z,9.58
2023-01-10T10:53:55.198Z,9.52
2023-01-10T10:54:55.238Z,9.46
2023-01-10T10:55:55.175Z,9.49
2023-01-10T10:56:55.226Z,9.63
2023-01-10T10:58:00.222Z,9.61
2023-01-10T10:58:56.146Z,9.63
2023-01-10T10:59:55.134Z,9.61
2023-01-10T11:00:55.262Z,9.63
2023-01-10T11:01:55.279Z,9.60
2023-01-10T11:02:55.100Z,9.56
2023-01-10T11:03:55.094Z,9.73
2023-01-10T11:04:55.125Z,9.66
2023-01-10T11:05:55.069Z,9.61
2023-01-10T11:06:55.081Z,9.58
2023-01-10T11:07:55.048Z,9.63
2023-01-10T11:08:55.034Z,9.64
2023-01-10T11:09:55.028Z,9.60
2023-01-10T11:10:55.042Z,9.56
2023-01-10T11:11:55.012Z,9.52
2023-01-10T11:12:54.991Z,9.53
2023-01-10T11:13:54.982Z,9.57
2023-01-10T11:14:54.968Z,9.64
2023-01-10T11:15:56.263Z,9.58
2023-01-10T11:16:54.965Z,9.60
2023-01-10T11:17:54.935Z,9.68
2023-01-10T11:18:54.927Z,9.85
2023-01-10T11:19:54.911Z,9.81
2023-01-10T11:20:54.907Z,9.93
2023-01-10T11:21:54.915Z,9.89
2023-01-10T11:22:54.876Z,10.00
2023-01-10T11:23:54.869Z,10.03
2023-01-10T11:24:54.854Z,10.09
2023-01-10T11:25:54.851Z,10.10
2023-01-10T11:26:54.860Z,10.03
2023-01-10T11:27:54.824Z,9.97
2023-01-10T11:28:54.810Z,9.99
2023-01-10T11:29:54.802Z,9.94
2023-01-10T11:30:54.794Z,9.99
2023-01-10T11:31:54.864Z,10.06
2023-01-10T11:32:54.770Z,10.06
2023-01-10T11:33:54.757Z,9.96
2023-01-10T11:34:54.746Z,9.96
2023-01-10T11:35:54.735Z,10.01
2023-01-10T11:36:54.753Z,9.93
2023-01-10T11:37:54.719Z,9.96
2023-01-10T11:38:54.705Z,9.99
2023-01-10T11:39:54.695Z,10.00
2023-01-10T11:40:54.678Z,9.94
2023-01-10T11:41:54.683Z,9.96
2023-01-10T11:42:54.697Z,9.99
2023-01-10T11:43:54.646Z,10.10
2023-01-10T11:44:54.634Z,10.03
2023-01-10T11:45:54.722Z,10.07
2023-01-10T11:46:54.623Z,10.04
2023-01-10T11:47:54.604Z,10.04
2023-01-10T11:49:08.635Z,10.03
2023-01-10T11:49:55.607Z,10.06
2023-01-10T11:50:54.582Z,10.12
2023-01-10T11:51:54.571Z,10.10
2023-01-10T11:52:54.544Z,10.18
2023-01-10T11:53:54.536Z,10.14
2023-01-10T11:54:54.533Z,10.09
2023-01-10T11:55:54.516Z,10.12
2023-01-10T11:56:54.520Z,10.09
2023-01-10T11:57:54.493Z,10.09
2023-01-10T11:58:54.496Z,10.10
2023-01-10T11:59:54.470Z,10.12
2023-01-10T12:00:54.517Z,10.18
2023-01-10T12:01:54.502Z,10.09
2023-01-10T12:02:54.441Z,10.14
2023-01-10T12:03:54.430Z,10.09
2023-01-10T12:04:54.468Z,10.17
2023-01-10T12:05:54.411Z,10.12
2023-01-10T12:06:54.401Z,10.15
2023-01-10T12:07:54.381Z,10.14
2023-01-10T12:08:54.369Z,10.07
2023-01-10T12:09:54.364Z,10.07
2023-01-10T12:10:54.347Z,10.12
2023-01-10T12:11:54.346Z,10.01
2023-01-10T12:12:54.369Z,10.01
2023-01-10T12:13:54.319Z,10.00
2023-01-10T12:14:54.323Z,10.06
2023-01-10T12:15:54.297Z,10.12
2023-01-10T12:16:54.290Z,10.06
2023-01-10T12:17:54.274Z,10.12
2023-01-10T12:18:54.258Z,10.06
2023-01-10T12:19:54.249Z,10.03
2023-01-10T12:20:54.243Z,10.00
2023-01-10T12:21:54.235Z,10.12
2023-01-10T12:22:54.219Z,10.06
2023-01-10T12:23:54.214Z,10.12
2023-01-10T12:24:54.220Z,10.19
2023-01-10T12:26:07.207Z,10.18
2023-01-10T12:26:55.177Z,10.15
2023-01-10T12:27:54.176Z,10.24
2023-01-10T12:28:54.157Z,10.22
2023-01-10T12:29:54.139Z,10.21
2023-01-10T12:30:54.195Z,10.21
2023-01-10T12:31:54.124Z,10.15
2023-01-10T12:32:54.117Z,10.18
2023-01-10T12:33:54.095Z,10.19
2023-01-10T12:34:54.086Z,10.09
2023-01-10T12:35:54.072Z,10.04
2023-01-10T12:36:54.071Z,10.07
2023-01-10T12:37:54.060Z,10.03
2023-01-10T12:38:54.076Z,10.04
2023-01-10T12:39:54.031Z,9.93
2023-01-10T12:40:54.018Z,9.99
2023-01-10T12:41:54.004Z,10.09
2023-01-10T12:42:54.034Z,10.04
2023-01-10T12:43:53.983Z,9.96
2023-01-10T12:44:53.984Z,10.03
2023-01-10T12:45:54.048Z,10.12
2023-01-10T12:47:06.609Z,10.07
2023-01-10T12:47:54.947Z,10.09
2023-01-10T12:48:53.933Z,10.14
2023-01-10T12:49:53.923Z,10.12
2023-01-10T12:50:53.994Z,10.18
2023-01-10T12:51:53.897Z,10.17
2023-01-10T12:52:53.895Z,10.17
2023-01-10T12:53:53.877Z,10.15
2023-01-10T12:54:53.862Z,10.19
2023-01-10T12:55:53.860Z,10.26
2023-01-10T12:56:53.840Z,10.28
2023-01-10T12:57:53.938Z,10.28
2023-01-10T12:58:53.825Z,10.26
2023-01-10T12:59:53.817Z,10.36
2023-01-10T13:00:53.902Z,10.34
2023-01-10T13:01:53.908Z,10.34
2023-01-10T13:02:53.857Z,10.34
2023-01-10T13:03:53.775Z,10.34
2023-01-10T13:04:53.763Z,10.32
2023-01-10T13:05:53.748Z,10.32
2023-01-10T13:06:53.738Z,10.25
2023-01-10T13:07:53.742Z,10.18
2023-01-10T13:08:53.712Z,10.19
2023-01-10T13:09:53.702Z,10.09
2023-01-10T13:10:53.701Z,10.09
2023-01-10T13:11:53.697Z,10.17
2023-01-10T13:12:53.676Z,10.12
2023-01-10T13:13:53.665Z,10.07